sensor_id;sensor_type;location;lat;lon;timestamp;P1;durP1;ratioP1;P2;durP2;ratioP2
67556;SDS011;54387;53.526;49.300;2023-08-01T00:01:04;4.00;;;2.05;;
67556;SDS011;54387;53.526;49.300;2023-08-01T00:03:31;3.28;;;1.70;;
67556;SDS011;54387;53.526;49.300;2023-08-01T00:05:58;3.22;;;2.25;;
67556;SDS011;54387;53.526;49.300;2023-08-01T00:08:24;2.50;;;1.95;;
67556;SDS011;54387;53.526;49.300;2023-08-01T00:10:50;3.15;;;2.58;;
67556;SDS011;54387;53.526;49.300;2023-08-01T00:13:17;2.70;;;2.05;;
67556;SDS011;54387;53.526;49.300;2023-08-01T00:15:43;3.83;;;2.38;;
67556;SDS011;54387;53.526;49.300;2023-08-01T00:18:10;3.35;;;2.10;;
67556;SDS011;54387;53.526;49.300;2023-08-01T00:20:36;2.85;;;2.20;;
67556;SDS011;54387;53.526;49.300;2023-08-01T00:23:02;3.90;;;2.15;;
67556;SDS011;54387;53.526;49.300;2023-08-01T00:25:29;4.00;;;2.40;;
67556;SDS011;54387;53.526;49.300;2023-08-01T00:27:55;2.83;;;2.13;;
67556;SDS011;54387;53.526;49.300;2023-08-01T00:30:22;4.22;;;2.10;;
67556;SDS011;54387;53.526;49.300;2023-08-01T00:32:48;4.85;;;2.33;;
67556;SDS011;54387;53.526;49.300;2023-08-01T00:35:14;4.40;;;2.33;;
67556;SDS011;54387;53.526;49.300;2023-08-01T00:37:42;3.63;;;2.53;;
67556;SDS011;54387;53.526;49.300;2023-08-01T00:40:08;4.00;;;2.33;;
67556;SDS011;54387;53.526;49.300;2023-08-01T00:42:38;3.22;;;2.53;;
67556;SDS011;54387;53.526;49.300;2023-08-01T00:45:04;2.75;;;2.35;;
67556;SDS011;54387;53.526;49.300;2023-08-01T00:47:31;6.25;;;2.35;;
67556;SDS011;54387;53.526;49.300;2023-08-01T00:49:58;2.83;;;2.55;;
67556;SDS011;54387;53.526;49.300;2023-08-01T00:52:25;3.25;;;2.55;;
67556;SDS011;54387;53.526;49.300;2023-08-01T00:54:51;3.80;;;2.70;;
67556;SDS011;54387;53.526;49.300;2023-08-01T00:57:19;3.25;;;2.33;;
67556;SDS011;54387;53.526;49.300;2023-08-01T00:59:46;3.30;;;2.28;;
67556;SDS011;54387;53.526;49.300;2023-08-01T01:02:12;4.38;;;2.50;;
67556;SDS011;54387;53.526;49.300;2023-08-01T01:04:39;3.63;;;2.60;;
67556;SDS011;54387;53.526;49.300;2023-08-01T01:07:06;5.35;;;2.47;;
67556;SDS011;54387;53.526;49.300;2023-08-01T01:09:33;8.20;;;2.42;;
67556;SDS011;54387;53.526;49.300;2023-08-01T01:11:59;3.38;;;2.42;;
67556;SDS011;54387;53.526;49.300;2023-08-01T01:14:26;3.63;;;2.75;;
67556;SDS011;54387;53.526;49.300;2023-08-01T01:16:53;7.85;;;2.80;;
67556;SDS011;54387;53.526;49.300;2023-08-01T01:19:20;5.00;;;2.50;;
67556;SDS011;54387;53.526;49.300;2023-08-01T01:22:05;4.57;;;2.60;;
67556;SDS011;54387;53.526;49.300;2023-08-01T01:24:40;5.25;;;2.80;;
67556;SDS011;54387;53.526;49.300;2023-08-01T01:27:08;3.63;;;2.50;;
67556;SDS011;54387;53.526;49.300;2023-08-01T01:29:35;5.10;;;2.65;;
67556;SDS011;54387;53.526;49.300;2023-08-01T01:32:02;3.97;;;2.35;;
67556;SDS011;54387;53.526;49.300;2023-08-01T01:34:30;4.35;;;2.60;;
67556;SDS011;54387;53.526;49.300;2023-08-01T01:36:56;5.28;;;2.58;;
67556;SDS011;54387;53.526;49.300;2023-08-01T01:39:23;3.63;;;2.60;;
67556;SDS011;54387;53.526;49.300;2023-08-01T01:41:50;2.35;;;2.13;;
67556;SDS011;54387;53.526;49.300;2023-08-01T01:44:16;3.90;;;2.47;;
67556;SDS011;54387;53.526;49.300;2023-08-01T01:46:43;4.03;;;2.42;;
67556;SDS011;54387;53.526;49.300;2023-08-01T01:49:09;5.50;;;2.47;;
67556;SDS011;54387;53.526;49.300;2023-08-01T01:51:35;3.28;;;2.42;;
67556;SDS011;54387;53.526;49.300;2023-08-01T01:54:02;4.07;;;2.50;;
67556;SDS011;54387;53.526;49.300;2023-08-01T01:56:28;3.75;;;2.33;;
67556;SDS011;54387;53.526;49.300;2023-08-01T01:58:55;3.20;;;2.30;;
67556;SDS011;54387;53.526;49.300;2023-08-01T02:01:21;3.92;;;2.38;;
67556;SDS011;54387;53.526;49.300;2023-08-01T02:03:48;3.47;;;2.75;;
67556;SDS011;54387;53.526;49.300;2023-08-01T02:06:14;3.70;;;3.33;;
67556;SDS011;54387;53.526;49.300;2023-08-01T02:08:41;4.20;;;2.60;;
67556;SDS011;54387;53.526;49.300;2023-08-01T02:11:07;5.40;;;2.65;;
67556;SDS011;54387;53.526;49.300;2023-08-01T02:13:34;5.25;;;2.58;;
67556;SDS011;54387;53.526;49.300;2023-08-01T02:16:00;6.38;;;2.65;;
67556;SDS011;54387;53.526;49.300;2023-08-01T02:18:26;3.13;;;2.38;;
67556;SDS011;54387;53.526;49.300;2023-08-01T02:20:53;4.32;;;2.67;;
67556;SDS011;54387;53.526;49.300;2023-08-01T02:23:19;3.47;;;2.53;;
67556;SDS011;54387;53.526;49.300;2023-08-01T02:25:45;4.53;;;2.50;;
67556;SDS011;54387;53.526;49.300;2023-08-01T02:28:12;6.38;;;2.85;;
67556;SDS011;54387;53.526;49.300;2023-08-01T02:30:38;7.82;;;3.05;;
67556;SDS011;54387;53.526;49.300;2023-08-01T02:33:05;4.63;;;2.70;;
67556;SDS011;54387;53.526;49.300;2023-08-01T02:35:31;4.30;;;2.88;;
67556;SDS011;54387;53.526;49.300;2023-08-01T02:37:58;6.43;;;3.17;;
67556;SDS011;54387;53.526;49.300;2023-08-01T02:40:24;5.03;;;2.40;;
67556;SDS011;54387;53.526;49.300;2023-08-01T02:42:52;3.72;;;2.40;;
67556;SDS011;54387;53.526;49.300;2023-08-01T02:45:18;3.92;;;2.50;;
67556;SDS011;54387;53.526;49.300;2023-08-01T02:47:45;4.78;;;2.63;;
67556;SDS011;54387;53.526;49.300;2023-08-01T02:50:12;3.42;;;2.65;;
67556;SDS011;54387;53.526;49.300;2023-08-01T02:52:38;3.15;;;2.35;;
67556;SDS011;54387;53.526;49.300;2023-08-01T02:55:05;5.53;;;2.55;;
67556;SDS011;54387;53.526;49.300;2023-08-01T02:57:32;4.03;;;2.35;;
67556;SDS011;54387;53.526;49.300;2023-08-01T02:59:59;2.75;;;2.10;;
67556;SDS011;54387;53.526;49.300;2023-08-01T03:02:25;5.03;;;2.47;;
67556;SDS011;54387;53.526;49.300;2023-08-01T03:04:53;5.15;;;2.20;;
67556;SDS011;54387;53.526;49.300;2023-08-01T03:07:20;5.00;;;2.35;;
67556;SDS011;54387;53.526;49.300;2023-08-01T03:09:46;4.55;;;2.72;;
67556;SDS011;54387;53.526;49.300;2023-08-01T03:12:12;3.33;;;2.45;;
67556;SDS011;54387;53.526;49.300;2023-08-01T03:14:39;6.18;;;2.25;;
67556;SDS011;54387;53.526;49.300;2023-08-01T03:17:07;3.20;;;2.30;;
67556;SDS011;54387;53.526;49.300;2023-08-01T03:19:34;5.93;;;2.60;;
67556;SDS011;54387;53.526;49.300;2023-08-01T03:22:00;6.35;;;2.67;;
67556;SDS011;54387;53.526;49.300;2023-08-01T03:24:26;3.85;;;2.33;;
67556;SDS011;54387;53.526;49.300;2023-08-01T03:26:53;3.38;;;2.40;;
67556;SDS011;54387;53.526;49.300;2023-08-01T03:29:19;2.72;;;2.17;;
67556;SDS011;54387;53.526;49.300;2023-08-01T03:31:46;3.83;;;2.15;;
67556;SDS011;54387;53.526;49.300;2023-08-01T03:34:12;2.40;;;2.03;;
67556;SDS011;54387;53.526;49.300;2023-08-01T03:36:38;4.88;;;2.33;;
67556;SDS011;54387;53.526;49.300;2023-08-01T03:39:05;2.88;;;2.20;;
67556;SDS011;54387;53.526;49.300;2023-08-01T03:41:32;5.78;;;2.38;;
67556;SDS011;54387;53.526;49.300;2023-08-01T03:43:58;6.22;;;2.30;;
67556;SDS011;54387;53.526;49.300;2023-08-01T03:46:25;4.88;;;2.30;;
67556;SDS011;54387;53.526;49.300;2023-08-01T03:48:51;4.07;;;2.22;;
67556;SDS011;54387;53.526;49.300;2023-08-01T03:51:18;3.33;;;2.38;;
67556;SDS011;54387;53.526;49.300;2023-08-01T03:53:45;2.35;;;2.10;;
67556;SDS011;54387;53.526;49.300;2023-08-01T03:56:11;3.83;;;2.10;;
67556;SDS011;54387;53.526;49.300;2023-08-01T03:58:37;2.75;;;1.90;;
67556;SDS011;54387;53.526;49.300;2023-08-01T04:01:04;3.25;;;2.38;;
67556;SDS011;54387;53.526;49.300;2023-08-01T04:03:32;3.38;;;2.30;;
67556;SDS011;54387;53.526;49.300;2023-08-01T04:05:58;4.65;;;2.45;;
67556;SDS011;54387;53.526;49.300;2023-08-01T04:08:25;4.03;;;2.42;;
67556;SDS011;54387;53.526;49.300;2023-08-01T04:10:51;3.05;;;2.33;;
67556;SDS011;54387;53.526;49.300;2023-08-01T04:13:17;4.25;;;2.30;;
67556;SDS011;54387;53.526;49.300;2023-08-01T04:15:44;7.53;;;2.58;;
67556;SDS011;54387;53.526;49.300;2023-08-01T04:18:10;4.53;;;2.33;;
67556;SDS011;54387;53.526;49.300;2023-08-01T04:20:36;5.65;;;2.60;;
67556;SDS011;54387;53.526;49.300;2023-08-01T04:23:03;4.43;;;2.10;;
67556;SDS011;54387;53.526;49.300;2023-08-01T04:25:29;4.78;;;2.30;;
67556;SDS011;54387;53.526;49.300;2023-08-01T04:27:56;5.57;;;2.70;;
67556;SDS011;54387;53.526;49.300;2023-08-01T04:30:22;3.38;;;2.40;;
67556;SDS011;54387;53.526;49.300;2023-08-01T04:32:49;5.05;;;2.15;;
67556;SDS011;54387;53.526;49.300;2023-08-01T04:35:15;5.45;;;2.45;;
67556;SDS011;54387;53.526;49.300;2023-08-01T04:37:41;5.80;;;2.30;;
67556;SDS011;54387;53.526;49.300;2023-08-01T04:40:08;3.47;;;2.28;;
67556;SDS011;54387;53.526;49.300;2023-08-01T04:42:35;2.97;;;2.17;;
67556;SDS011;54387;53.526;49.300;2023-08-01T04:45:01;3.28;;;2.20;;
67556;SDS011;54387;53.526;49.300;2023-08-01T04:47:28;4.90;;;2.00;;
67556;SDS011;54387;53.526;49.300;2023-08-01T04:49:55;3.67;;;2.00;;
67556;SDS011;54387;53.526;49.300;2023-08-01T04:52:21;3.53;;;2.20;;
67556;SDS011;54387;53.526;49.300;2023-08-01T04:54:48;2.65;;;1.77;;
67556;SDS011;54387;53.526;49.300;2023-08-01T04:57:14;3.50;;;2.00;;
67556;SDS011;54387;53.526;49.300;2023-08-01T04:59:40;4.70;;;2.17;;
67556;SDS011;54387;53.526;49.300;2023-08-01T05:02:07;2.53;;;2.13;;
67556;SDS011;54387;53.526;49.300;2023-08-01T05:04:33;3.83;;;2.05;;
67556;SDS011;54387;53.526;49.300;2023-08-01T05:07:00;3.45;;;2.38;;
67556;SDS011;54387;53.526;49.300;2023-08-01T05:09:26;3.85;;;2.50;;
67556;SDS011;54387;53.526;49.300;2023-08-01T05:11:53;8.82;;;2.80;;
67556;SDS011;54387;53.526;49.300;2023-08-01T05:14:19;4.88;;;2.47;;
67556;SDS011;54387;53.526;49.300;2023-08-01T05:16:46;4.45;;;2.45;;
67556;SDS011;54387;53.526;49.300;2023-08-01T05:19:12;4.57;;;2.53;;
67556;SDS011;54387;53.526;49.300;2023-08-01T05:21:39;11.48;;;2.42;;
67556;SDS011;54387;53.526;49.300;2023-08-01T05:24:05;6.82;;;3.10;;
67556;SDS011;54387;53.526;49.300;2023-08-01T05:26:31;5.85;;;2.30;;
67556;SDS011;54387;53.526;49.300;2023-08-01T05:28:58;3.55;;;2.20;;
67556;SDS011;54387;53.526;49.300;2023-08-01T05:31:24;2.45;;;2.05;;
67556;SDS011;54387;53.526;49.300;2023-08-01T05:33:51;3.10;;;2.33;;
67556;SDS011;54387;53.526;49.300;2023-08-01T05:36:18;4.90;;;2.35;;
67556;SDS011;54387;53.526;49.300;2023-08-01T05:38:44;4.43;;;1.90;;
67556;SDS011;54387;53.526;49.300;2023-08-01T05:41:11;3.00;;;1.80;;
67556;SDS011;54387;53.526;49.300;2023-08-01T05:43:39;3.53;;;2.30;;
67556;SDS011;54387;53.526;49.300;2023-08-01T05:46:05;2.40;;;2.00;;
67556;SDS011;54387;53.526;49.300;2023-08-01T05:48:32;3.88;;;2.47;;
67556;SDS011;54387;53.526;49.300;2023-08-01T05:50:58;2.60;;;2.00;;
67556;SDS011;54387;53.526;49.300;2023-08-01T05:53:25;3.90;;;1.90;;
67556;SDS011;54387;53.526;49.300;2023-08-01T05:55:52;2.25;;;2.00;;
67556;SDS011;54387;53.526;49.300;2023-08-01T05:58:19;4.38;;;2.42;;
67556;SDS011;54387;53.526;49.300;2023-08-01T06:00:46;3.33;;;2.22;;
67556;SDS011;54387;53.526;49.300;2023-08-01T06:03:12;4.07;;;2.45;;
67556;SDS011;54387;53.526;49.300;2023-08-01T06:05:39;3.08;;;1.80;;
67556;SDS011;54387;53.526;49.300;2023-08-01T06:08:06;3.53;;;2.20;;
67556;SDS011;54387;53.526;49.300;2023-08-01T06:10:34;2.70;;;2.10;;
67556;SDS011;54387;53.526;49.300;2023-08-01T06:13:01;3.90;;;2.20;;
67556;SDS011;54387;53.526;49.300;2023-08-01T06:15:28;4.03;;;1.90;;
67556;SDS011;54387;53.526;49.300;2023-08-01T06:17:54;3.67;;;2.15;;
67556;SDS011;54387;53.526;49.300;2023-08-01T06:20:20;5.80;;;2.00;;
67556;SDS011;54387;53.526;49.300;2023-08-01T06:22:47;2.75;;;2.10;;
67556;SDS011;54387;53.526;49.300;2023-08-01T06:25:14;4.25;;;1.95;;
67556;SDS011;54387;53.526;49.300;2023-08-01T06:27:40;7.43;;;2.47;;
67556;SDS011;54387;53.526;49.300;2023-08-01T06:30:08;4.88;;;1.90;;
67556;SDS011;54387;53.526;49.300;2023-08-01T06:32:34;3.53;;;2.10;;
67556;SDS011;54387;53.526;49.300;2023-08-01T06:35:01;3.10;;;2.10;;
67556;SDS011;54387;53.526;49.300;2023-08-01T06:37:28;3.63;;;2.20;;
67556;SDS011;54387;53.526;49.300;2023-08-01T06:39:54;4.60;;;1.77;;
67556;SDS011;54387;53.526;49.300;2023-08-01T06:42:21;3.75;;;2.03;;
67556;SDS011;54387;53.526;49.300;2023-08-01T06:44:48;3.13;;;1.92;;
67556;SDS011;54387;53.526;49.300;2023-08-01T06:47:14;5.32;;;2.10;;
67556;SDS011;54387;53.526;49.300;2023-08-01T06:49:40;5.82;;;2.15;;
67556;SDS011;54387;53.526;49.300;2023-08-01T06:52:07;5.72;;;2.00;;
67556;SDS011;54387;53.526;49.300;2023-08-01T06:54:34;3.88;;;1.98;;
67556;SDS011;54387;53.526;49.300;2023-08-01T06:57:00;2.92;;;1.70;;
67556;SDS011;54387;53.526;49.300;2023-08-01T06:59:26;3.58;;;2.10;;
67556;SDS011;54387;53.526;49.300;2023-08-01T07:01:53;4.25;;;2.13;;
67556;SDS011;54387;53.526;49.300;2023-08-01T07:04:20;4.75;;;2.10;;
67556;SDS011;54387;53.526;49.300;2023-08-01T07:06:46;2.83;;;1.70;;
67556;SDS011;54387;53.526;49.300;2023-08-01T07:09:12;6.07;;;2.38;;
67556;SDS011;54387;53.526;49.300;2023-08-01T07:11:39;6.10;;;1.83;;
67556;SDS011;54387;53.526;49.300;2023-08-01T07:14:06;2.83;;;1.92;;
67556;SDS011;54387;53.526;49.300;2023-08-01T07:16:32;3.85;;;1.58;;
67556;SDS011;54387;53.526;49.300;2023-08-01T07:18:59;2.75;;;1.73;;
67556;SDS011;54387;53.526;49.300;2023-08-01T07:21:26;5.25;;;2.60;;
67556;SDS011;54387;53.526;49.300;2023-08-01T07:23:54;3.25;;;1.70;;
67556;SDS011;54387;53.526;49.300;2023-08-01T07:26:21;5.28;;;1.65;;
67556;SDS011;54387;53.526;49.300;2023-08-01T07:28:47;2.08;;;1.55;;
67556;SDS011;54387;53.526;49.300;2023-08-01T07:31:14;3.15;;;1.80;;
67556;SDS011;54387;53.526;49.300;2023-08-01T07:33:40;2.75;;;1.88;;
67556;SDS011;54387;53.526;49.300;2023-08-01T07:36:07;4.10;;;1.88;;
67556;SDS011;54387;53.526;49.300;2023-08-01T07:38:33;3.60;;;1.60;;
67556;SDS011;54387;53.526;49.300;2023-08-01T07:41:03;2.22;;;1.65;;
67556;SDS011;54387;53.526;49.300;2023-08-01T07:43:30;3.50;;;2.10;;
67556;SDS011;54387;53.526;49.300;2023-08-01T07:45:57;3.58;;;2.10;;
67556;SDS011;54387;53.526;49.300;2023-08-01T07:48:24;4.03;;;1.70;;
67556;SDS011;54387;53.526;49.300;2023-08-01T07:50:51;1.88;;;1.50;;
67556;SDS011;54387;53.526;49.300;2023-08-01T07:53:17;3.55;;;2.08;;
67556;SDS011;54387;53.526;49.300;2023-08-01T07:55:44;2.28;;;1.80;;
67556;SDS011;54387;53.526;49.300;2023-08-01T07:58:10;2.10;;;1.58;;
67556;SDS011;54387;53.526;49.300;2023-08-01T08:00:37;2.25;;;1.88;;
67556;SDS011;54387;53.526;49.300;2023-08-01T08:03:04;3.25;;;1.60;;
67556;SDS011;54387;53.526;49.300;2023-08-01T08:05:31;3.65;;;1.80;;
67556;SDS011;54387;53.526;49.300;2023-08-01T08:07:58;2.55;;;2.03;;
67556;SDS011;54387;53.526;49.300;2023-08-01T08:10:24;2.63;;;1.90;;
67556;SDS011;54387;53.526;49.300;2023-08-01T08:12:51;2.97;;;2.15;;
67556;SDS011;54387;53.526;49.300;2023-08-01T08:15:17;3.42;;;2.30;;
67556;SDS011;54387;53.526;49.300;2023-08-01T08:17:45;6.45;;;2.10;;
67556;SDS011;54387;53.526;49.300;2023-08-01T08:20:11;2.33;;;1.73;;
67556;SDS011;54387;53.526;49.300;2023-08-01T08:22:38;2.45;;;1.85;;
67556;SDS011;54387;53.526;49.300;2023-08-01T08:25:04;2.65;;;1.70;;
67556;SDS011;54387;53.526;49.300;2023-08-01T08:27:31;3.00;;;1.90;;
67556;SDS011;54387;53.526;49.300;2023-08-01T08:29:57;4.80;;;1.77;;
67556;SDS011;54387;53.526;49.300;2023-08-01T08:32:24;2.97;;;1.33;;
67556;SDS011;54387;53.526;49.300;2023-08-01T08:34:51;2.22;;;1.60;;
67556;SDS011;54387;53.526;49.300;2023-08-01T08:37:18;2.47;;;1.40;;
67556;SDS011;54387;53.526;49.300;2023-08-01T08:39:46;2.20;;;1.67;;
67556;SDS011;54387;53.526;49.300;2023-08-01T08:42:12;2.45;;;1.98;;
67556;SDS011;54387;53.526;49.300;2023-08-01T08:44:42;2.20;;;1.60;;
67556;SDS011;54387;53.526;49.300;2023-08-01T08:47:09;2.65;;;1.70;;
67556;SDS011;54387;53.526;49.300;2023-08-01T08:49:38;1.75;;;1.38;;
67556;SDS011;54387;53.526;49.300;2023-08-01T08:52:06;4.20;;;1.52;;
67556;SDS011;54387;53.526;49.300;2023-08-01T08:54:33;4.93;;;1.50;;
67556;SDS011;54387;53.526;49.300;2023-08-01T08:57:01;2.00;;;1.25;;
67556;SDS011;54387;53.526;49.300;2023-08-01T08:59:35;3.20;;;1.67;;
67556;SDS011;54387;53.526;49.300;2023-08-01T09:02:02;2.92;;;1.38;;
67556;SDS011;54387;53.526;49.300;2023-08-01T09:04:33;2.92;;;1.30;;
67556;SDS011;54387;53.526;49.300;2023-08-01T09:07:05;2.60;;;1.60;;
67556;SDS011;54387;53.526;49.300;2023-08-01T09:09:35;2.30;;;1.77;;
67556;SDS011;54387;53.526;49.300;2023-08-01T09:12:02;1.70;;;1.30;;
67556;SDS011;54387;53.526;49.300;2023-08-01T09:14:29;2.08;;;1.67;;
67556;SDS011;54387;53.526;49.300;2023-08-01T09:17:08;1.83;;;1.40;;
67556;SDS011;54387;53.526;49.300;2023-08-01T09:19:35;2.97;;;1.70;;
67556;SDS011;54387;53.526;49.300;2023-08-01T09:22:02;5.15;;;2.10;;
67556;SDS011;54387;53.526;49.300;2023-08-01T09:24:35;1.58;;;1.30;;
67556;SDS011;54387;53.526;49.300;2023-08-01T09:27:02;2.38;;;1.60;;
67556;SDS011;54387;53.526;49.300;2023-08-01T09:29:34;8.77;;;1.77;;
67556;SDS011;54387;53.526;49.300;2023-08-01T09:32:11;2.03;;;1.30;;
67556;SDS011;54387;53.526;49.300;2023-08-01T09:34:40;2.53;;;1.50;;
67556;SDS011;54387;53.526;49.300;2023-08-01T09:37:08;1.48;;;1.15;;
67556;SDS011;54387;53.526;49.300;2023-08-01T09:39:35;4.80;;;1.58;;
67556;SDS011;54387;53.526;49.300;2023-08-01T09:42:02;2.80;;;1.40;;
67556;SDS011;54387;53.526;49.300;2023-08-01T09:44:29;2.53;;;1.55;;
67556;SDS011;54387;53.526;49.300;2023-08-01T09:47:03;1.98;;;1.20;;
67556;SDS011;54387;53.526;49.300;2023-08-01T09:49:32;3.13;;;1.38;;
67556;SDS011;54387;53.526;49.300;2023-08-01T09:51:58;2.13;;;1.35;;
67556;SDS011;54387;53.526;49.300;2023-08-01T09:54:25;4.63;;;1.80;;
67556;SDS011;54387;53.526;49.300;2023-08-01T09:56:52;1.73;;;1.58;;
67556;SDS011;54387;53.526;49.300;2023-08-01T09:59:23;3.30;;;1.35;;
67556;SDS011;54387;53.526;49.300;2023-08-01T10:01:51;2.40;;;1.40;;
67556;SDS011;54387;53.526;49.300;2023-08-01T10:04:23;2.55;;;1.50;;
67556;SDS011;54387;53.526;49.300;2023-08-01T10:06:59;2.30;;;1.40;;
67556;SDS011;54387;53.526;49.300;2023-08-01T10:09:32;2.45;;;1.70;;
67556;SDS011;54387;53.526;49.300;2023-08-01T10:12:01;2.78;;;1.50;;
67556;SDS011;54387;53.526;49.300;2023-08-01T10:14:28;3.00;;;2.20;;
67556;SDS011;54387;53.526;49.300;2023-08-01T10:16:57;3.08;;;1.48;;
67556;SDS011;54387;53.526;49.300;2023-08-01T10:19:24;2.22;;;1.27;;
67556;SDS011;54387;53.526;49.300;2023-08-01T10:21:51;1.98;;;1.40;;
67556;SDS011;54387;53.526;49.300;2023-08-01T10:24:20;6.82;;;1.35;;
67556;SDS011;54387;53.526;49.300;2023-08-01T10:26:47;2.67;;;1.40;;
67556;SDS011;54387;53.526;49.300;2023-08-01T10:29:13;1.30;;;1.20;;
67556;SDS011;54387;53.526;49.300;2023-08-01T10:31:49;4.22;;;1.40;;
67556;SDS011;54387;53.526;49.300;2023-08-01T10:34:20;1.60;;;1.45;;
67556;SDS011;54387;53.526;49.300;2023-08-01T10:36:55;1.55;;;1.45;;
67556;SDS011;54387;53.526;49.300;2023-08-01T10:39:23;1.30;;;1.20;;
67556;SDS011;54387;53.526;49.300;2023-08-01T10:42:03;2.90;;;1.30;;
67556;SDS011;54387;53.526;49.300;2023-08-01T10:44:31;3.03;;;1.73;;
67556;SDS011;54387;53.526;49.300;2023-08-01T10:47:03;2.38;;;1.60;;
67556;SDS011;54387;53.526;49.300;2023-08-01T10:49:35;1.40;;;1.30;;
67556;SDS011;54387;53.526;49.300;2023-08-01T10:52:04;2.60;;;1.52;;
67556;SDS011;54387;53.526;49.300;2023-08-01T10:54:43;2.65;;;1.52;;
67556;SDS011;54387;53.526;49.300;2023-08-01T10:57:19;6.53;;;1.60;;
67556;SDS011;54387;53.526;49.300;2023-08-01T10:59:46;2.50;;;1.70;;
67556;SDS011;54387;53.526;49.300;2023-08-01T11:02:19;1.80;;;1.30;;
67556;SDS011;54387;53.526;49.300;2023-08-01T11:05:02;2.00;;;1.60;;
67556;SDS011;54387;53.526;49.300;2023-08-01T11:07:34;1.98;;;1.60;;
67556;SDS011;54387;53.526;49.300;2023-08-01T11:10:10;2.00;;;1.50;;
67556;SDS011;54387;53.526;49.300;2023-08-01T11:15:07;2.05;;;1.63;;
67556;SDS011;54387;53.526;49.300;2023-08-01T11:17:41;1.83;;;1.48;;
67556;SDS011;54387;53.526;49.300;2023-08-01T11:20:12;4.45;;;1.27;;
67556;SDS011;54387;53.526;49.300;2023-08-01T11:25:36;1.75;;;1.38;;
67556;SDS011;54387;53.526;49.300;2023-08-01T11:28:08;3.03;;;1.70;;
67556;SDS011;54387;53.526;49.300;2023-08-01T11:30:39;4.35;;;1.83;;
67556;SDS011;54387;53.526;49.300;2023-08-01T11:33:16;2.55;;;1.45;;
67556;SDS011;54387;53.526;49.300;2023-08-01T11:35:53;2.10;;;1.60;;
67556;SDS011;54387;53.526;49.300;2023-08-01T11:38:26;2.13;;;1.10;;
67556;SDS011;54387;53.526;49.300;2023-08-01T11:40:58;1.73;;;1.10;;
67556;SDS011;54387;53.526;49.300;2023-08-01T11:43:26;2.40;;;1.27;;
67556;SDS011;54387;53.526;49.300;2023-08-01T11:45:53;3.60;;;1.80;;
67556;SDS011;54387;53.526;49.300;2023-08-01T11:48:22;3.67;;;1.63;;
67556;SDS011;54387;53.526;49.300;2023-08-01T11:50:49;2.88;;;2.15;;
67556;SDS011;54387;53.526;49.300;2023-08-01T11:53:22;3.00;;;1.73;;
67556;SDS011;54387;53.526;49.300;2023-08-01T11:55:49;4.50;;;1.63;;
67556;SDS011;54387;53.526;49.300;2023-08-01T11:58:31;3.20;;;1.50;;
67556;SDS011;54387;53.526;49.300;2023-08-01T12:01:05;2.88;;;1.60;;
67556;SDS011;54387;53.526;49.300;2023-08-01T12:03:47;1.83;;;1.52;;
67556;SDS011;54387;53.526;49.300;2023-08-01T12:06:18;2.97;;;1.75;;
67556;SDS011;54387;53.526;49.300;2023-08-01T12:08:46;2.28;;;1.80;;
67556;SDS011;54387;53.526;49.300;2023-08-01T12:11:32;5.22;;;1.90;;
67556;SDS011;54387;53.526;49.300;2023-08-01T12:14:05;2.08;;;1.58;;
67556;SDS011;54387;53.526;49.300;2023-08-01T12:16:35;2.38;;;1.55;;
67556;SDS011;54387;53.526;49.300;2023-08-01T12:19:03;2.80;;;1.63;;
67556;SDS011;54387;53.526;49.300;2023-08-01T12:21:31;21.83;;;2.22;;
67556;SDS011;54387;53.526;49.300;2023-08-01T12:23:58;2.95;;;1.50;;
67556;SDS011;54387;53.526;49.300;2023-08-01T12:26:25;3.28;;;1.88;;
67556;SDS011;54387;53.526;49.300;2023-08-01T12:28:52;2.13;;;1.40;;
67556;SDS011;54387;53.526;49.300;2023-08-01T12:31:18;2.35;;;1.15;;
67556;SDS011;54387;53.526;49.300;2023-08-01T12:33:46;5.22;;;1.80;;
67556;SDS011;54387;53.526;49.300;2023-08-01T12:36:13;3.00;;;1.50;;
67556;SDS011;54387;53.526;49.300;2023-08-01T12:38:40;4.28;;;1.45;;
67556;SDS011;54387;53.526;49.300;2023-08-01T12:41:07;2.10;;;1.58;;
67556;SDS011;54387;53.526;49.300;2023-08-01T12:43:34;1.83;;;1.40;;
67556;SDS011;54387;53.526;49.300;2023-08-01T12:46:01;2.65;;;1.63;;
67556;SDS011;54387;53.526;49.300;2023-08-01T12:48:27;4.95;;;2.38;;
67556;SDS011;54387;53.526;49.300;2023-08-01T12:50:54;3.03;;;1.60;;
67556;SDS011;54387;53.526;49.300;2023-08-01T12:53:21;3.38;;;1.70;;
67556;SDS011;54387;53.526;49.300;2023-08-01T12:55:49;2.83;;;2.00;;
67556;SDS011;54387;53.526;49.300;2023-08-01T12:58:16;3.15;;;2.65;;
67556;SDS011;54387;53.526;49.300;2023-08-01T13:00:43;2.65;;;1.73;;
67556;SDS011;54387;53.526;49.300;2023-08-01T13:03:10;3.65;;;2.00;;
67556;SDS011;54387;53.526;49.300;2023-08-01T13:05:38;2.85;;;1.60;;
67556;SDS011;54387;53.526;49.300;2023-08-01T13:08:05;1.88;;;1.58;;
67556;SDS011;54387;53.526;49.300;2023-08-01T13:10:33;3.17;;;1.60;;
67556;SDS011;54387;53.526;49.300;2023-08-01T13:13:00;4.25;;;2.10;;
67556;SDS011;54387;53.526;49.300;2023-08-01T13:15:27;1.92;;;1.60;;
67556;SDS011;54387;53.526;49.300;2023-08-01T13:17:54;2.30;;;1.90;;
67556;SDS011;54387;53.526;49.300;2023-08-01T13:20:21;3.35;;;1.80;;
67556;SDS011;54387;53.526;49.300;2023-08-01T13:22:48;3.65;;;1.65;;
67556;SDS011;54387;53.526;49.300;2023-08-01T13:25:17;1.65;;;1.55;;
67556;SDS011;54387;53.526;49.300;2023-08-01T13:27:44;2.58;;;1.60;;
67556;SDS011;54387;53.526;49.300;2023-08-01T13:30:11;2.00;;;1.50;;
67556;SDS011;54387;53.526;49.300;2023-08-01T13:32:43;4.15;;;2.13;;
67556;SDS011;54387;53.526;49.300;2023-08-01T13:35:10;6.50;;;2.03;;
67556;SDS011;54387;53.526;49.300;2023-08-01T13:37:37;4.28;;;1.92;;
67556;SDS011;54387;53.526;49.300;2023-08-01T13:40:04;4.90;;;2.05;;
67556;SDS011;54387;53.526;49.300;2023-08-01T13:42:31;5.10;;;1.63;;
67556;SDS011;54387;53.526;49.300;2023-08-01T13:44:58;2.75;;;2.00;;
67556;SDS011;54387;53.526;49.300;2023-08-01T13:47:25;5.43;;;1.73;;
67556;SDS011;54387;53.526;49.300;2023-08-01T13:49:52;6.07;;;4.35;;
67556;SDS011;54387;53.526;49.300;2023-08-01T13:52:18;4.30;;;2.33;;
67556;SDS011;54387;53.526;49.300;2023-08-01T13:54:45;3.58;;;2.30;;
67556;SDS011;54387;53.526;49.300;2023-08-01T13:57:11;2.95;;;1.70;;
67556;SDS011;54387;53.526;49.300;2023-08-01T13:59:37;3.22;;;1.63;;
67556;SDS011;54387;53.526;49.300;2023-08-01T14:02:04;5.70;;;2.17;;
67556;SDS011;54387;53.526;49.300;2023-08-01T14:04:31;3.03;;;1.98;;
67556;SDS011;54387;53.526;49.300;2023-08-01T14:06:57;3.58;;;1.90;;
67556;SDS011;54387;53.526;49.300;2023-08-01T14:09:24;4.13;;;1.92;;
67556;SDS011;54387;53.526;49.300;2023-08-01T14:11:50;2.22;;;1.50;;
67556;SDS011;54387;53.526;49.300;2023-08-01T14:14:16;8.30;;;1.92;;
67556;SDS011;54387;53.526;49.300;2023-08-01T14:16:43;3.45;;;1.98;;
67556;SDS011;54387;53.526;49.300;2023-08-01T14:19:09;3.60;;;2.20;;
67556;SDS011;54387;53.526;49.300;2023-08-01T14:21:35;2.67;;;1.95;;
67556;SDS011;54387;53.526;49.300;2023-08-01T14:24:02;4.03;;;1.58;;
67556;SDS011;54387;53.526;49.300;2023-08-01T14:26:29;3.45;;;1.67;;
67556;SDS011;54387;53.526;49.300;2023-08-01T14:28:55;2.50;;;2.10;;
67556;SDS011;54387;53.526;49.300;2023-08-01T14:31:24;5.13;;;1.80;;
67556;SDS011;54387;53.526;49.300;2023-08-01T14:33:51;3.85;;;1.65;;
67556;SDS011;54387;53.526;49.300;2023-08-01T14:36:17;2.40;;;1.50;;
67556;SDS011;54387;53.526;49.300;2023-08-01T14:38:43;2.90;;;1.63;;
67556;SDS011;54387;53.526;49.300;2023-08-01T14:41:10;5.90;;;1.90;;